createdAt,value
2022-11-27T00:01:32.544Z,37.97
2022-11-27T00:04:00.130Z,31.75
2022-11-27T00:06:29.409Z,32.55
2022-11-27T00:08:58.250Z,24.25
2022-11-27T00:11:27.022Z,25.60
2022-11-27T00:13:54.258Z,29.48
2022-11-27T00:16:22.603Z,29.58
2022-11-27T00:18:50.316Z,23.55
2022-11-27T00:21:22.775Z,25.75
2022-11-27T00:23:51.140Z,28.35
2022-11-27T00:26:18.930Z,23.45
2022-11-27T00:28:46.778Z,22.00
2022-11-27T00:31:17.059Z,31.90
2022-11-27T00:33:44.438Z,30.73
2022-11-27T00:36:13.061Z,21.85
2022-11-27T00:38:40.821Z,27.15
2022-11-27T00:41:08.947Z,23.13
2022-11-27T00:43:44.077Z,22.27
2022-11-27T00:46:24.023Z,23.48
2022-11-27T00:48:55.765Z,25.80
2022-11-27T00:51:24.832Z,23.40
2022-11-27T00:53:52.659Z,24.70
2022-11-27T00:56:29.590Z,30.23
2022-11-27T00:58:57.812Z,20.75
2022-11-27T01:01:31.397Z,20.30
2022-11-27T01:04:03.310Z,25.45
2022-11-27T01:06:31.179Z,26.00
2022-11-27T01:08:59.275Z,26.85
2022-11-27T01:11:29.788Z,26.00
2022-11-27T01:14:01.298Z,20.00
2022-11-27T01:16:32.145Z,21.40
2022-11-27T01:19:00.846Z,19.40
2022-11-27T01:21:30.681Z,21.17
2022-11-27T01:23:58.430Z,25.13
2022-11-27T01:26:26.341Z,23.02
2022-11-27T01:28:55.109Z,23.90
2022-11-27T01:31:26.377Z,21.42
2022-11-27T01:33:55.361Z,29.60
2022-11-27T01:36:24.252Z,26.38
2022-11-27T01:38:53.685Z,25.10
2022-11-27T01:41:24.007Z,27.27
2022-11-27T01:43:53.351Z,20.15
2022-11-27T01:46:36.203Z,20.00
2022-11-27T01:49:17.405Z,21.35
2022-11-27T01:51:49.695Z,23.38
2022-11-27T01:54:18.386Z,20.90
2022-11-27T01:56:50.097Z,20.90
2022-11-27T01:59:18.640Z,20.73
2022-11-27T02:01:45.778Z,25.00
2022-11-27T02:04:14.010Z,22.20
2022-11-27T02:06:51.473Z,19.80
2022-11-27T02:09:33.680Z,23.38
2022-11-27T02:12:58.534Z,20.77
2022-11-27T02:15:48.877Z,23.33
2022-11-27T02:18:46.944Z,16.58
2022-11-27T02:21:53.333Z,23.40
2022-11-27T02:24:43.785Z,22.90
2022-11-27T02:30:12.422Z,24.48
2022-11-27T02:33:05.765Z,24.60
2022-11-27T02:35:39.488Z,19.92
2022-11-27T02:38:21.149Z,21.85
2022-11-27T02:41:20.833Z,21.50
2022-11-27T02:43:50.712Z,23.70
2022-11-27T02:46:20.438Z,25.50
2022-11-27T02:48:57.948Z,19.67
2022-11-27T02:51:39.225Z,17.77
2022-11-27T02:54:12.260Z,21.38
2022-11-27T02:59:12.430Z,19.60
2022-11-27T03:01:49.097Z,20.63
2022-11-27T03:04:22.590Z,18.17
2022-11-27T03:06:54.785Z,22.40
2022-11-27T03:09:31.990Z,21.13
2022-11-27T03:11:59.207Z,24.40
2022-11-27T03:14:26.543Z,27.98
2022-11-27T03:17:20.942Z,19.05
2022-11-27T03:20:29.494Z,15.23
2022-11-27T03:22:57.127Z,17.25
2022-11-27T03:25:24.906Z,14.18
2022-11-27T03:28:08.083Z,16.13
2022-11-27T03:33:02.802Z,17.45
2022-11-27T03:35:31.842Z,17.42
2022-11-27T03:37:58.933Z,17.10
2022-11-27T03:40:49.954Z,14.10
2022-11-27T03:43:25.727Z,19.48
2022-11-27T03:46:03.920Z,18.45
2022-11-27T03:48:41.703Z,17.05
2022-11-27T03:51:26.287Z,17.88
2022-11-27T03:54:05.531Z,15.23
2022-11-27T03:56:58.688Z,22.20
2022-11-27T03:59:32.995Z,20.48
2022-11-27T04:02:00.125Z,14.98
2022-11-27T04:04:27.201Z,17.25
2022-11-27T04:06:54.332Z,17.92
2022-11-27T04:09:23.990Z,14.48
2022-11-27T04:11:51.001Z,17.77
2022-11-27T04:14:17.938Z,19.05
2022-11-27T04:16:47.281Z,23.63
2022-11-27T04:19:14.268Z,18.70
2022-11-27T04:21:41.259Z,19.45
2022-11-27T04:24:08.334Z,14.73
2022-11-27T04:26:35.350Z,19.08
2022-11-27T04:29:02.405Z,17.48
2022-11-27T04:31:29.892Z,22.95
2022-11-27T04:33:56.920Z,18.33
2022-11-27T04:36:23.965Z,17.67
2022-11-27T04:38:50.954Z,17.35
2022-11-27T04:41:20.225Z,16.55
2022-11-27T04:43:47.224Z,17.85
2022-11-27T04:46:16.812Z,15.52
2022-11-27T04:48:43.807Z,14.95
2022-11-27T04:51:11.560Z,17.00
2022-11-27T04:53:38.748Z,13.73
2022-11-27T04:56:15.638Z,20.17
2022-11-27T04:58:52.809Z,14.00
2022-11-27T05:01:25.352Z,15.45
2022-11-27T05:03:57.282Z,18.85
2022-11-27T05:12:20.342Z,20.73
2022-11-27T05:15:12.167Z,13.13
2022-11-27T05:18:24.945Z,17.20
2022-11-27T05:21:03.101Z,20.15
2022-11-27T05:23:34.391Z,15.52
2022-11-27T05:26:10.446Z,17.80
2022-11-27T05:28:44.548Z,15.25
2022-11-27T05:31:14.271Z,17.85
2022-11-27T05:36:35.735Z,15.05
2022-11-27T05:39:05.836Z,18.08
2022-11-27T05:41:45.666Z,16.27
2022-11-27T05:44:20.052Z,13.65
2022-11-27T05:46:50.275Z,17.20
2022-11-27T05:49:25.356Z,13.98
2022-11-27T05:52:25.270Z,18.27
2022-11-27T05:54:59.183Z,16.55
2022-11-27T05:57:30.984Z,17.60
2022-11-27T06:00:06.511Z,14.55
2022-11-27T06:02:39.733Z,19.77
2022-11-27T06:08:07.502Z,15.50
2022-11-27T06:10:46.559Z,13.98
2022-11-27T06:13:35.296Z,14.18
2022-11-27T06:16:26.632Z,12.85
2022-11-27T06:19:03.794Z,16.17
2022-11-27T06:22:17.207Z,15.38
2022-11-27T06:24:54.208Z,14.18
2022-11-27T06:27:26.071Z,9.48
2022-11-27T06:30:17.841Z,20.17
2022-11-27T06:32:50.322Z,14.98
2022-11-27T06:35:22.313Z,16.70
2022-11-27T06:38:16.139Z,17.20
2022-11-27T06:40:45.875Z,16.83
2022-11-27T06:43:18.265Z,16.33
2022-11-27T06:47:32.334Z,16.38
2022-11-27T06:49:09.670Z,9.50
2022-11-27T06:51:46.885Z,15.93
2022-11-27T06:54:19.184Z,15.45
2022-11-27T06:57:05.946Z,11.35
2022-11-27T07:02:38.167Z,12.93
2022-11-27T07:05:07.943Z,15.65
2022-11-27T07:07:53.706Z,13.05
2022-11-27T07:10:24.936Z,12.98
2022-11-27T07:13:09.588Z,10.38
2022-11-27T07:15:55.100Z,10.95
2022-11-27T07:18:27.982Z,15.23
2022-11-27T07:21:00.209Z,13.85
2022-11-27T07:23:32.968Z,11.98
2022-11-27T07:26:13.261Z,12.05
2022-11-27T07:28:43.876Z,14.52
2022-11-27T07:31:15.302Z,9.60
2022-11-27T07:34:01.715Z,11.45
2022-11-27T07:36:31.573Z,9.57
2022-11-27T07:39:46.216Z,13.73
2022-11-27T07:42:53.503Z,12.10
2022-11-27T07:45:28.640Z,9.95
2022-11-27T07:48:00.960Z,13.02
2022-11-27T07:50:29.595Z,12.77
2022-11-27T07:53:04.332Z,11.35
2022-11-27T07:55:42.385Z,13.35
2022-11-27T07:58:22.324Z,14.15
2022-11-27T08:01:10.216Z,12.30
2022-11-27T08:03:47.303Z,15.60
2022-11-27T08:06:28.538Z,15.32
2022-11-27T08:09:01.167Z,12.70
2022-11-27T08:11:35.325Z,13.50
2022-11-27T08:14:32.474Z,12.25
2022-11-27T08:17:09.524Z,12.40
2022-11-27T08:19:39.330Z,14.60
2022-11-27T08:22:24.016Z,11.43
2022-11-27T08:24:53.684Z,12.18
2022-11-27T08:27:41.074Z,12.13
2022-11-27T08:30:28.357Z,13.50
2022-11-27T08:33:43.799Z,12.55
2022-11-27T08:36:34.241Z,13.15
2022-11-27T08:41:52.116Z,11.65
2022-11-27T08:44:21.620Z,12.10
2022-11-27T08:46:53.422Z,12.77
2022-11-27T08:49:25.984Z,13.88
2022-11-27T08:52:17.689Z,14.00
2022-11-27T08:54:53.205Z,12.32
2022-11-27T08:57:34.789Z,13.23
2022-11-27T09:00:15.612Z,11.50
2022-11-27T09:02:57.999Z,12.68
2022-11-27T09:05:32.265Z,15.47
2022-11-27T09:08:21.589Z,9.88
2022-11-27T09:10:54.197Z,11.57
2022-11-27T09:13:39.674Z,11.88
2022-11-27T09:16:31.553Z,11.02
2022-11-27T09:19:03.635Z,10.43
2022-11-27T09:24:31.085Z,13.13
2022-11-27T09:27:12.288Z,16.50
2022-11-27T09:29:42.211Z,12.13
2022-11-27T09:33:49.613Z,14.23
2022-11-27T09:35:09.830Z,12.88
2022-11-27T09:40:38.246Z,10.05
2022-11-27T09:43:14.132Z,13.68
2022-11-27T09:46:01.066Z,14.25
2022-11-27T09:48:47.595Z,16.13
2022-11-27T09:51:47.710Z,17.98
2022-11-27T09:54:33.263Z,14.02
2022-11-27T09:57:14.328Z,15.07
2022-11-27T10:00:13.865Z,14.93
2022-11-27T10:02:58.460Z,12.40
2022-11-27T10:05:33.571Z,16.20
2022-11-27T10:11:18.594Z,13.65
2022-11-27T10:14:28.698Z,11.82
2022-11-27T10:20:28.659Z,10.50
2022-11-27T10:23:34.479Z,11.48
2022-11-27T10:26:21.721Z,14.02
2022-11-27T10:29:20.910Z,17.30
2022-11-27T10:32:01.335Z,14.50
2022-11-27T10:34:43.228Z,11.48
2022-11-27T10:37:28.704Z,16.70
2022-11-27T10:40:10.552Z,13.25
2022-11-27T10:42:46.642Z,18.65
2022-11-27T10:45:45.858Z,10.10
2022-11-27T10:48:13.936Z,11.40
2022-11-27T10:50:41.777Z,17.02
2022-11-27T10:53:14.938Z,20.67
2022-11-27T10:55:44.972Z,12.95
2022-11-27T10:58:36.814Z,15.85
2022-11-27T11:01:16.945Z,13.32
2022-11-27T11:03:43.937Z,18.25
2022-11-27T11:06:23.655Z,16.95
2022-11-27T11:09:15.934Z,14.57
2022-11-27T11:11:44.369Z,16.42
2022-11-27T11:14:19.343Z,13.30
2022-11-27T11:16:46.997Z,15.00
2022-11-27T11:19:31.809Z,13.00
2022-11-27T11:22:03.878Z,13.05
2022-11-27T11:24:33.078Z,15.33
2022-11-27T11:27:06.282Z,15.27
2022-11-27T11:29:46.606Z,17.55
2022-11-27T11:32:24.637Z,11.73
2022-11-27T11:35:03.034Z,15.00
2022-11-27T11:37:36.137Z,15.48
2022-11-27T11:40:05.968Z,15.00
2022-11-27T11:42:35.781Z,15.75
2022-11-27T11:45:13.218Z,16.20
2022-11-27T11:47:55.135Z,16.63
2022-11-27T11:50:50.980Z,19.05
2022-11-27T11:53:30.180Z,15.82
2022-11-27T11:56:15.259Z,17.17
2022-11-27T11:59:02.701Z,18.55
2022-11-27T12:02:06.107Z,17.38
2022-11-27T12:04:51.866Z,18.17
2022-11-27T12:07:39.981Z,17.80
2022-11-27T12:10:22.121Z,18.52
2022-11-27T12:16:16.969Z,16.20
2022-11-27T12:19:04.235Z,15.73
2022-11-27T12:21:46.189Z,19.05
2022-11-27T12:24:30.194Z,22.42
2022-11-27T12:27:35.611Z,14.57
2022-11-27T12:30:44.890Z,20.83
2022-11-27T12:33:56.903Z,17.77
2022-11-27T12:36:40.176Z,17.23
2022-11-27T12:42:07.173Z,19.98
2022-11-27T12:45:04.054Z,19.10
2022-11-27T12:47:44.600Z,20.15
2022-11-27T12:50:30.732Z,19.65
2022-11-27T12:53:16.758Z,19.05
2022-11-27T12:55:57.883Z,21.88
2022-11-27T12:58:31.515Z,19.05
2022-11-27T13:01:07.303Z,25.27
2022-11-27T13:03:55.902Z,17.60
2022-11-27T13:06:27.811Z,16.35
2022-11-27T13:09:01.407Z,17.73
2022-11-27T13:11:40.588Z,18.23
2022-11-27T13:14:12.203Z,14.93
2022-11-27T13:17:03.796Z,15.52
2022-11-27T13:19:35.815Z,18.15
2022-11-27T13:22:15.444Z,15.18
2022-11-27T13:24:46.383Z,19.67
2022-11-27T13:27:21.952Z,22.30
2022-11-27T13:30:03.351Z,18.27
2022-11-27T13:32:41.221Z,18.02
2022-11-27T13:35:30.965Z,19.13
2022-11-27T13:38:04.935Z,19.40
2022-11-27T13:40:37.563Z,22.50
2022-11-27T13:43:15.815Z,18.25
2022-11-27T13:45:43.943Z,17.58
2022-11-27T13:48:32.268Z,17.02
2022-11-27T13:51:00.324Z,16.35
2022-11-27T13:53:42.204Z,17.90
2022-11-27T13:56:09.841Z,16.10
2022-11-27T13:58:42.336Z,16.45
2022-11-27T14:01:21.814Z,17.33
2022-11-27T14:03:49.841Z,20.77
2022-11-27T14:06:30.385Z,21.35
2022-11-27T14:09:00.440Z,18.50
2022-11-27T14:11:34.683Z,20.70
2022-11-27T14:14:12.038Z,15.33
2022-11-27T14:16:39.637Z,22.58
2022-11-27T14:19:35.524Z,15.80
2022-11-27T14:22:17.392Z,17.05
2022-11-27T14:24:45.962Z,14.52
2022-11-27T14:27:21.808Z,19.45
2022-11-27T14:29:49.962Z,16.55
2022-11-27T14:32:18.996Z,15.32
2022-11-27T14:34:48.086Z,15.30
2022-11-27T14:37:24.420Z,15.45
2022-11-27T14:39:51.759Z,16.85
2022-11-27T14:42:30.660Z,18.88
2022-11-27T14:45:13.680Z,16.55
2022-11-27T14:47:47.979Z,15.27
2022-11-27T14:50:17.813Z,17.38
2022-11-27T14:52:57.143Z,14.52
2022-11-27T14:55:29.024Z,16.88
2022-11-27T14:58:01.556Z,17.15
2022-11-27T15:00:28.894Z,16.73
2022-11-27T15:02:56.696Z,16.13
2022-11-27T15:05:29.373Z,12.75
2022-11-27T15:08:09.053Z,19.35
2022-11-27T15:10:39.064Z,16.20
2022-11-27T15:13:08.711Z,19.48
2022-11-27T15:15:43.476Z,17.90
2022-11-27T15:18:22.690Z,17.08
2022-11-27T15:20:50.904Z,16.88
2022-11-27T15:23:20.202Z,17.73
2022-11-27T15:26:16.775Z,17.58
2022-11-27T15:28:57.157Z,15.77
2022-11-27T15:31:26.911Z,13.82
2022-11-27T15:34:13.869Z,14.93
2022-11-27T15:36:43.040Z,16.30
2022-11-27T15:39:21.314Z,15.40
2022-11-27T15:42:00.264Z,14.07
2022-11-27T15:44:30.843Z,17.88
2022-11-27T15:47:00.896Z,18.17
2022-11-27T15:49:28.552Z,18.70
2022-11-27T15:51:57.002Z,15.75
2022-11-27T15:54:24.674Z,18.52
2022-11-27T15:56:52.110Z,18.77
2022-11-27T15:59:20.763Z,17.10
2022-11-27T16:01:49.407Z,16.45
2022-11-27T16:04:17.263Z,13.65
2022-11-27T16:06:44.347Z,14.27
2022-11-27T16:09:11.423Z,16.05
2022-11-27T16:11:38.553Z,18.92
2022-11-27T16:14:05.568Z,17.15
2022-11-27T16:16:32.874Z,14.40
2022-11-27T16:19:01.103Z,16.52
2022-11-27T16:21:32.349Z,16.08
2022-11-27T16:24:03.622Z,16.05
2022-11-27T16:26:31.156Z,18.23
2022-11-27T16:28:58.712Z,16.63
2022-11-27T16:31:26.964Z,15.52
2022-11-27T16:33:54.408Z,14.50
2022-11-27T16:36:24.417Z,15.63
2022-11-27T16:38:55.423Z,15.82
2022-11-27T16:41:25.141Z,18.23
2022-11-27T16:43:56.720Z,19.00
2022-11-27T16:46:30.344Z,17.10
2022-11-27T16:48:59.267Z,18.65
2022-11-27T16:51:31.270Z,18.30
2022-11-27T16:54:02.464Z,13.73
2022-11-27T16:56:31.168Z,14.48
2022-11-27T16:59:03.163Z,16.10
2022-11-27T17:03:59.903Z,19.00
2022-11-27T17:06:29.731Z,21.65
2022-11-27T17:08:58.502Z,17.08
2022-11-27T17:11:28.146Z,18.90
2022-11-27T17:14:01.249Z,16.48
2022-11-27T17:16:28.631Z,16.70
2022-11-27T17:18:55.981Z,11.82
2022-11-27T17:21:29.301Z,14.45
2022-11-27T17:23:58.402Z,15.35
2022-11-27T17:26:28.095Z,18.55
2022-11-27T17:28:56.351Z,13.30
2022-11-27T17:31:26.690Z,14.88
2022-11-27T17:33:57.228Z,14.80
2022-11-27T17:36:25.640Z,15.70
2022-11-27T17:38:53.678Z,18.55
2022-11-27T17:41:21.522Z,13.32
2022-11-27T17:43:49.307Z,13.82
2022-11-27T17:46:19.317Z,14.43
2022-11-27T17:48:46.760Z,11.85
2022-11-27T17:51:14.735Z,14.35
2022-11-27T17:53:42.794Z,17.08
2022-11-27T17:56:12.983Z,12.82
2022-11-27T17:58:41.450Z,10.52
2022-11-27T18:01:17.095Z,14.18
2022-11-27T18:03:46.414Z,14.20
2022-11-27T18:06:17.088Z,13.10
2022-11-27T18:08:45.491Z,13.68
2022-11-27T18:11:20.654Z,13.75
2022-11-27T18:13:48.896Z,12.77
2022-11-27T18:16:20.081Z,14.88
2022-11-27T18:18:49.373Z,14.32
2022-11-27T18:21:19.441Z,16.38
2022-11-27T18:24:21.474Z,16.00
2022-11-27T18:27:07.704Z,17.20
2022-11-27T18:29:24.607Z,12.90
2022-11-27T18:31:53.283Z,14.95
2022-11-27T18:34:20.413Z,15.20
2022-11-27T18:36:47.478Z,15.93
2022-11-27T18:39:14.762Z,15.07
2022-11-27T18:41:41.914Z,13.35
2022-11-27T18:44:09.115Z,12.02
2022-11-27T18:46:36.718Z,13.88
2022-11-27T18:49:04.027Z,11.40
2022-11-27T18:51:31.382Z,12.48
2022-11-27T18:53:58.413Z,19.38
2022-11-27T18:56:31.170Z,12.80
2022-11-27T18:59:04.862Z,14.68
2022-11-27T19:01:41.484Z,14.18
2022-11-27T19:04:11.454Z,16.98
2022-11-27T19:06:39.757Z,13.00
2022-11-27T19:09:07.242Z,13.50
2022-11-27T19:11:35.141Z,17.08
2022-11-27T19:14:04.391Z,15.88
2022-11-27T19:16:51.185Z,16.17
2022-11-27T19:19:53.291Z,16.00
2022-11-27T19:22:07.725Z,13.57
2022-11-27T19:24:35.243Z,16.27
2022-11-27T19:27:03.424Z,16.38
2022-11-27T19:29:31.033Z,17.25
2022-11-27T19:31:59.305Z,14.20
2022-11-27T19:34:26.852Z,20.02
2022-11-27T19:36:54.289Z,13.85
2022-11-27T19:39:21.667Z,17.33
2022-11-27T19:41:49.387Z,14.38
2022-11-27T19:44:17.614Z,13.55
2022-11-27T19:46:46.532Z,15.45
2022-11-27T19:49:18.398Z,16.88
2022-11-27T19:51:46.621Z,15.80
2022-11-27T19:54:15.042Z,16.02
2022-11-27T19:56:42.850Z,18.48
2022-11-27T19:59:11.135Z,17.95
2022-11-27T20:01:40.878Z,19.17
2022-11-27T20:04:11.689Z,15.18
2022-11-27T20:06:39.446Z,19.25
2022-11-27T20:09:07.015Z,13.23
2022-11-27T20:11:35.846Z,17.38
2022-11-27T20:14:05.601Z,16.17
2022-11-27T20:16:34.869Z,15.95
2022-11-27T20:19:05.586Z,18.02
2022-11-27T20:21:38.420Z,22.05
2022-11-27T20:24:05.939Z,18.30
2022-11-27T20:26:36.163Z,20.85
2022-11-27T20:29:07.745Z,18.92
2022-11-27T20:31:37.652Z,19.17
2022-11-27T20:34:06.080Z,16.52
2022-11-27T20:36:37.382Z,19.00
2022-11-27T20:39:05.210Z,19.38
2022-11-27T20:41:32.538Z,18.63
2022-11-27T20:44:02.184Z,15.45
2022-11-27T20:46:31.555Z,22.25
2022-11-27T20:48:59.751Z,20.45
2022-11-27T20:51:32.603Z,18.30
2022-11-27T20:54:06.138Z,22.75
2022-11-27T20:56:37.233Z,20.10
2022-11-27T20:59:07.472Z,19.63
2022-11-27T21:01:36.387Z,20.92
2022-11-27T21:04:12.773Z,20.58
2022-11-27T21:06:43.861Z,21.48
2022-11-27T21:09:13.979Z,21.05
2022-11-27T21:11:42.406Z,17.45
2022-11-27T21:14:11.822Z,19.88
2022-11-27T21:16:42.809Z,17.05
2022-11-27T21:19:25.397Z,24.00
2022-11-27T21:23:11.826Z,19.95
2022-11-27T21:25:39.645Z,19.10
2022-11-27T21:30:48.962Z,21.42
2022-11-27T21:33:16.393Z,18.42
2022-11-27T21:35:44.624Z,18.88
2022-11-27T21:38:14.298Z,20.67
2022-11-27T21:40:41.541Z,20.92
2022-11-27T21:43:08.829Z,19.70
2022-11-27T21:45:37.536Z,20.67
2022-11-27T21:48:07.896Z,21.05
2022-11-27T21:50:39.519Z,22.50
2022-11-27T21:53:07.692Z,18.58
2022-11-27T21:55:46.145Z,20.85
2022-11-27T21:58:13.930Z,21.40
2022-11-27T22:00:41.264Z,18.38
2022-11-27T22:03:08.625Z,16.63
2022-11-27T22:05:35.835Z,24.27
2022-11-27T22:08:03.172Z,19.55
2022-11-27T22:10:30.440Z,22.08
2022-11-27T22:12:57.851Z,17.70
2022-11-27T22:15:25.730Z,20.23
2022-11-27T22:17:56.206Z,19.55
2022-11-27T22:20:23.852Z,20.27
2022-11-27T22:22:51.108Z,23.70
2022-11-27T22:25:18.887Z,17.92
2022-11-27T22:27:46.158Z,18.13
2022-11-27T22:30:13.936Z,21.15
2022-11-27T22:32:41.701Z,19.20
2022-11-27T22:35:12.235Z,22.83
2022-11-27T22:37:39.787Z,23.55
2022-11-27T22:40:08.713Z,19.15
2022-11-27T22:42:41.313Z,20.23
2022-11-27T22:45:09.082Z,20.50
2022-11-27T22:47:39.326Z,28.45
2022-11-27T22:50:07.507Z,18.80
2022-11-27T22:52:35.243Z,20.92
2022-11-27T22:55:03.254Z,29.45
2022-11-27T22:57:30.897Z,22.25
2022-11-27T23:00:01.147Z,22.88
2022-11-27T23:02:29.335Z,25.30
2022-11-27T23:04:56.735Z,21.17
2022-11-27T23:07:25.415Z,19.70
2022-11-27T23:09:53.082Z,23.20
2022-11-27T23:12:20.459Z,21.20
2022-11-27T23:14:47.748Z,23.42
2022-11-27T23:17:15.301Z,20.90
2022-11-27T23:19:42.643Z,23.88
2022-11-27T23:22:10.281Z,18.02
2022-11-27T23:24:38.057Z,20.05
2022-11-27T23:27:06.511Z,21.20
2022-11-27T23:29:36.560Z,18.77
2022-11-27T23:32:03.931Z,18.92
2022-11-27T23:34:31.165Z,17.95
2022-11-27T23:36:58.433Z,20.83
2022-11-27T23:39:25.751Z,18.45
2022-11-27T23:41:53.245Z,24.90
2022-11-27T23:44:21.483Z,24.90
2022-11-27T23:46:48.963Z,21.55
2022-11-27T23:49:16.708Z,23.08
2022-11-27T23:51:45.982Z,19.05
2022-11-27T23:54:17.252Z,21.75
2022-11-27T23:56:46.182Z,26.05
2022-11-27T23:59:19.080Z,18.33
